Hardwick, Vermont
Current Conditions -  °F | °C
As of 1:35 AM on Wednesday 26 Nov 2014 (Local Time) from KCDA Reporting Station
Overcast Overcast  
Wind Chill: 30°   Ceiling: 3400
Heat Index: 37°   Visibility: 10mi
Dew Point: 24°   Wind: 10mph
Humidity: 57%   Direction: 260°W
Pressure: 30.13"   Gusts: 17mph
Location:  44.5°N, 72.37°W
Report Text: KCDA 260635Z AUTO 26009G15KT 10SM OVC034 03/M05 A3013 RMK AO2 T00301047
Loading
Personal Weather Stations






























Interactive Weather Map New forecast layout! Learn more

10-Day Weather Forecast

Advertisements
Track Severe Weather on mobile